createdAt,value
2023-02-16T00:00:28.248Z,98718.75
2023-02-16T00:02:56.373Z,98728.25
2023-02-16T00:05:27.212Z,98730.59
2023-02-16T00:08:02.217Z,98734.47
2023-02-16T00:10:36.500Z,98739.66
2023-02-16T00:13:45.524Z,98736.66
2023-02-16T00:16:22.090Z,98733.47
2023-02-16T00:18:50.829Z,98737.06
2023-02-16T00:21:19.305Z,98731.63
2023-02-16T00:23:48.653Z,98752.31
2023-02-16T00:26:20.360Z,98747.09
2023-02-16T00:28:51.677Z,98740.66
2023-02-16T00:31:27.633Z,98752.69
2023-02-16T00:33:56.092Z,98752.50
2023-02-16T00:36:23.727Z,98755.13
2023-02-16T00:38:51.803Z,98768.53
2023-02-16T00:41:41.199Z,98761.13
2023-02-16T00:44:18.140Z,98771.97
2023-02-16T00:46:46.805Z,98776.38
2023-02-16T00:49:23.576Z,98776.97
2023-02-16T00:51:51.297Z,98775.97
2023-02-16T00:54:19.546Z,98783.97
2023-02-16T00:56:47.310Z,98788.97
2023-02-16T00:59:20.749Z,98799.59
2023-02-16T01:01:49.243Z,98790.56
2023-02-16T01:04:22.154Z,98788.34
2023-02-16T01:07:08.622Z,98793.69
2023-02-16T01:09:55.466Z,98787.31
2023-02-16T01:12:23.274Z,98792.31
2023-02-16T01:14:55.792Z,98793.94
2023-02-16T01:17:24.782Z,98792.13
2023-02-16T01:19:54.933Z,98802.00
2023-02-16T01:22:22.556Z,98797.94
2023-02-16T01:24:50.269Z,98794.94
2023-02-16T01:27:18.905Z,98794.44
2023-02-16T01:29:46.626Z,98798.13
2023-02-16T01:32:16.874Z,98796.28
2023-02-16T01:34:44.630Z,98802.13
2023-02-16T01:37:16.760Z,98788.69
2023-02-16T01:39:44.904Z,98787.09
2023-02-16T01:42:32.626Z,98809.47
2023-02-16T01:45:05.290Z,98808.88
2023-02-16T01:47:42.686Z,98767.28
2023-02-16T01:50:16.078Z,98810.66
2023-02-16T01:52:48.646Z,98796.56
2023-02-16T01:55:33.742Z,98816.03
2023-02-16T01:58:16.695Z,98804.53
2023-02-16T02:00:53.229Z,98808.38
2023-02-16T02:03:48.720Z,98809.53
2023-02-16T02:06:20.560Z,98815.16
2023-02-16T02:09:06.681Z,98820.41
2023-02-16T02:11:42.302Z,98814.69
2023-02-16T02:14:16.290Z,98833.50
2023-02-16T02:16:59.091Z,98827.13
2023-02-16T02:19:31.475Z,98827.25
2023-02-16T02:22:28.919Z,98839.31
2023-02-16T02:25:22.131Z,98853.69
2023-02-16T02:28:22.082Z,98848.91
2023-02-16T02:30:59.000Z,98858.09
2023-02-16T02:34:05.991Z,98860.38
2023-02-16T02:36:46.176Z,98870.16
2023-02-16T02:39:39.719Z,98869.91
2023-02-16T02:42:32.232Z,98863.53
2023-02-16T02:45:12.909Z,98866.97
2023-02-16T02:47:47.553Z,98870.94
2023-02-16T02:50:37.327Z,98880.66
2023-02-16T02:53:10.580Z,98879.72
2023-02-16T02:56:02.301Z,98893.44
2023-02-16T02:58:53.195Z,98880.41
2023-02-16T03:01:22.971Z,98892.50
2023-02-16T03:03:55.689Z,98904.41
2023-02-16T03:06:36.587Z,98894.28
2023-02-16T03:09:12.492Z,98893.94
2023-02-16T03:11:58.646Z,98900.13
2023-02-16T03:14:33.565Z,98907.69
2023-02-16T03:17:24.393Z,98902.63
2023-02-16T03:20:11.331Z,98895.47
2023-02-16T03:22:59.567Z,98900.13
2023-02-16T03:25:49.366Z,98911.22
2023-02-16T03:28:39.259Z,98908.72
2023-02-16T03:31:10.009Z,98913.19
2023-02-16T03:33:38.465Z,98922.41
2023-02-16T03:36:07.704Z,98923.53
2023-02-16T03:38:36.177Z,98888.84
2023-02-16T03:41:04.927Z,98923.94
2023-02-16T03:43:32.904Z,98920.47
2023-02-16T03:46:00.599Z,98915.28
2023-02-16T03:48:28.320Z,98934.28
2023-02-16T03:50:55.927Z,98932.28
2023-02-16T03:53:23.655Z,98942.03
2023-02-16T03:55:51.165Z,98933.25
2023-02-16T03:58:22.494Z,98940.38
2023-02-16T04:00:51.315Z,98936.63
2023-02-16T04:03:19.913Z,98932.22
2023-02-16T04:05:47.520Z,98931.34
2023-02-16T04:08:15.227Z,98946.28
2023-02-16T04:10:42.820Z,98950.06
2023-02-16T04:13:10.570Z,98952.94
2023-02-16T04:15:38.113Z,98937.16
2023-02-16T04:18:05.797Z,98938.34
2023-02-16T04:20:34.764Z,98944.47
2023-02-16T04:23:03.484Z,98953.16
2023-02-16T04:25:31.127Z,98950.72
2023-02-16T04:27:59.056Z,98950.56
2023-02-16T04:30:30.089Z,98971.25
2023-02-16T04:32:59.127Z,98952.09
2023-02-16T04:35:26.999Z,98959.13
2023-02-16T04:37:54.514Z,98956.34
2023-02-16T04:40:22.446Z,98963.25
2023-02-16T04:42:50.038Z,98966.91
2023-02-16T04:45:17.663Z,98975.34
2023-02-16T04:47:45.285Z,98972.78
2023-02-16T04:50:13.043Z,98983.25
2023-02-16T04:52:41.706Z,98982.84
2023-02-16T04:55:11.217Z,98971.66
2023-02-16T04:57:40.534Z,98994.78
2023-02-16T05:00:09.577Z,98976.13
2023-02-16T05:02:37.218Z,98979.34
2023-02-16T05:05:04.924Z,98970.91
2023-02-16T05:07:32.584Z,98977.16
2023-02-16T05:10:00.175Z,98988.19
2023-02-16T05:12:45.971Z,98985.00
2023-02-16T05:15:13.529Z,98986.00
2023-02-16T05:17:41.049Z,98979.16
2023-02-16T05:20:09.017Z,98980.94
2023-02-16T05:22:39.352Z,98983.69
2023-02-16T05:25:07.876Z,98981.41
2023-02-16T05:27:35.828Z,98967.66
2023-02-16T05:30:03.840Z,98976.97
2023-02-16T05:32:32.284Z,98966.81
2023-02-16T05:34:59.815Z,98972.88
2023-02-16T05:37:27.453Z,98983.41
2023-02-16T05:39:55.155Z,98980.91
2023-02-16T05:42:22.743Z,98978.50
2023-02-16T05:44:50.384Z,98977.22
2023-02-16T05:47:17.982Z,98985.81
2023-02-16T05:49:45.522Z,98995.22
2023-02-16T05:52:13.065Z,98992.69
2023-02-16T05:54:40.674Z,98988.66
2023-02-16T05:57:10.056Z,98994.25
2023-02-16T05:59:37.896Z,99004.78
2023-02-16T06:02:58.187Z,99024.63
2023-02-16T06:05:26.801Z,99012.78
2023-02-16T06:07:54.275Z,99013.00
2023-02-16T06:10:22.008Z,99019.06
2023-02-16T06:12:49.544Z,99020.78
2023-02-16T06:15:18.289Z,99019.34
2023-02-16T06:17:45.827Z,99025.94
2023-02-16T06:20:13.648Z,99027.19
2023-02-16T06:22:41.243Z,99022.53
2023-02-16T06:25:08.927Z,99017.53
2023-02-16T06:27:36.656Z,99009.88
2023-02-16T06:30:05.018Z,99036.72
2023-02-16T06:32:33.860Z,99034.28
2023-02-16T06:35:01.439Z,99041.53
2023-02-16T06:37:31.344Z,99029.94
2023-02-16T06:39:58.959Z,99053.84
2023-02-16T06:42:26.671Z,99043.19
2023-02-16T06:44:54.245Z,99044.00
2023-02-16T06:47:21.930Z,99045.00
2023-02-16T06:49:49.535Z,99040.66
2023-02-16T06:52:17.211Z,99048.03
2023-02-16T06:54:44.803Z,99053.97
2023-02-16T06:57:12.437Z,99048.59
2023-02-16T06:59:40.438Z,99050.09
2023-02-16T07:02:07.967Z,99049.59
2023-02-16T07:04:35.623Z,99048.72
2023-02-16T07:07:04.426Z,99062.16
2023-02-16T07:09:32.139Z,99051.34
2023-02-16T07:11:59.912Z,99053.34
2023-02-16T07:14:27.516Z,99024.69
2023-02-16T07:16:55.127Z,99051.06
2023-02-16T07:19:22.675Z,99050.72
2023-02-16T07:21:50.495Z,99047.44
2023-02-16T07:24:18.562Z,99048.59
2023-02-16T07:26:46.089Z,99053.16
2023-02-16T07:29:13.773Z,99043.84
2023-02-16T07:31:41.745Z,99052.13
2023-02-16T07:34:09.393Z,99058.50
2023-02-16T07:36:37.087Z,99053.22
2023-02-16T07:39:04.870Z,99052.22
2023-02-16T07:41:32.447Z,99058.34
2023-02-16T07:44:08.267Z,99065.94
2023-02-16T07:46:36.688Z,99068.63
2023-02-16T07:49:04.525Z,99077.03
2023-02-16T07:51:32.718Z,99061.28
2023-02-16T07:54:01.038Z,99069.06
2023-02-16T07:56:31.285Z,99070.09
2023-02-16T07:59:00.475Z,99073.16
2023-02-16T08:01:30.336Z,99055.53
2023-02-16T08:03:58.294Z,99074.06
2023-02-16T08:06:25.875Z,99072.09
2023-02-16T08:08:53.569Z,99076.44
2023-02-16T08:11:24.128Z,99083.94
2023-02-16T08:13:53.472Z,99080.16
2023-02-16T08:16:23.604Z,99074.59
2023-02-16T08:18:52.185Z,99082.16
2023-02-16T08:21:25.259Z,99078.47
2023-02-16T08:23:59.979Z,99064.41
2023-02-16T08:26:33.260Z,99070.59
2023-02-16T08:29:02.341Z,99077.22
2023-02-16T08:31:32.167Z,99074.19
2023-02-16T08:34:02.068Z,99059.75
2023-02-16T08:36:35.428Z,99072.16
2023-02-16T08:39:06.488Z,99075.47
2023-02-16T08:41:36.695Z,99079.75
2023-02-16T08:44:06.630Z,99082.59
2023-02-16T08:46:36.048Z,99090.00
2023-02-16T08:49:04.461Z,99093.59
2023-02-16T08:51:37.698Z,99096.81
2023-02-16T08:54:08.921Z,99081.72
2023-02-16T08:56:37.034Z,99085.16
2023-02-16T08:59:04.552Z,99091.34
2023-02-16T09:01:32.709Z,99090.38
2023-02-16T09:04:00.363Z,99075.06
2023-02-16T09:06:27.929Z,99089.09
2023-02-16T09:08:57.676Z,99100.13
2023-02-16T09:11:25.908Z,99090.44
2023-02-16T09:13:53.653Z,99091.53
2023-02-16T09:16:23.931Z,99097.97
2023-02-16T09:18:52.699Z,99088.19
2023-02-16T09:21:23.528Z,99092.66
2023-02-16T09:23:51.858Z,99074.16
2023-02-16T09:26:21.098Z,99074.31
2023-02-16T09:28:49.499Z,99080.31
2023-02-16T09:31:27.572Z,99072.78
2023-02-16T09:33:58.151Z,99073.47
2023-02-16T09:36:26.119Z,99082.97
2023-02-16T09:38:54.809Z,99079.91
2023-02-16T09:41:35.309Z,99081.63
2023-02-16T09:44:22.151Z,99076.53
2023-02-16T09:46:50.793Z,99088.09
2023-02-16T09:49:41.202Z,99078.06
2023-02-16T09:52:08.770Z,99102.03
2023-02-16T09:54:48.027Z,99090.53
2023-02-16T09:57:41.617Z,99089.75
2023-02-16T10:00:38.257Z,99078.44
2023-02-16T10:03:13.709Z,99099.03
2023-02-16T10:06:08.158Z,99094.44
2023-02-16T10:08:50.563Z,99083.22
2023-02-16T10:12:01.487Z,99089.09
2023-02-16T10:14:51.866Z,99096.19
2023-02-16T10:17:38.091Z,99094.53
2023-02-16T10:20:30.494Z,99086.91
2023-02-16T10:23:23.412Z,99093.38
2023-02-16T10:26:01.917Z,99089.91
2023-02-16T10:28:43.766Z,99090.03
2023-02-16T10:31:34.474Z,99090.03
2023-02-16T10:34:24.491Z,99085.34
2023-02-16T10:37:02.726Z,99100.78
2023-02-16T10:39:32.993Z,99091.84
2023-02-16T10:42:16.749Z,99097.81
2023-02-16T10:45:18.475Z,99094.34
2023-02-16T10:47:47.555Z,99088.03
2023-02-16T10:50:33.579Z,99085.75
2023-02-16T10:53:16.231Z,99098.56
2023-02-16T10:55:43.790Z,99099.53
2023-02-16T10:58:35.426Z,99110.19
2023-02-16T11:01:11.898Z,99103.38
2023-02-16T11:03:47.035Z,99098.66
2023-02-16T11:06:17.726Z,99086.72
2023-02-16T11:08:58.270Z,99099.75
2023-02-16T11:11:27.824Z,99106.28
2023-02-16T11:14:01.974Z,99105.47
2023-02-16T11:16:30.144Z,99119.91
2023-02-16T11:19:00.874Z,99096.81
2023-02-16T11:21:47.665Z,99101.72
2023-02-16T11:24:33.674Z,99088.53
2023-02-16T11:27:19.922Z,99109.19
2023-02-16T11:29:47.821Z,99088.13
2023-02-16T11:32:18.510Z,99096.50
2023-02-16T11:34:48.152Z,99110.22
2023-02-16T11:37:24.705Z,99104.38
2023-02-16T11:39:54.609Z,99089.94
2023-02-16T11:42:33.638Z,99109.88
2023-02-16T11:45:03.649Z,99089.97
2023-02-16T11:47:36.997Z,99103.84
2023-02-16T11:50:27.257Z,99098.69
2023-02-16T11:53:15.769Z,99106.91
2023-02-16T11:55:46.482Z,99107.94
2023-02-16T11:58:25.036Z,99104.97
2023-02-16T12:01:16.987Z,99110.78
2023-02-16T12:04:00.298Z,99104.03
2023-02-16T12:06:43.324Z,99120.06
2023-02-16T12:09:30.996Z,99118.84
2023-02-16T12:12:10.933Z,99130.72
2023-02-16T12:14:50.938Z,99143.31
2023-02-16T12:17:28.179Z,99134.94
2023-02-16T12:20:27.448Z,99127.72
2023-02-16T12:23:33.246Z,99130.28
2023-02-16T12:26:07.058Z,99125.13
2023-02-16T12:28:39.391Z,99125.94
2023-02-16T12:31:28.970Z,99133.16
2023-02-16T12:34:14.126Z,99119.16
2023-02-16T12:37:20.670Z,99138.41
2023-02-16T12:40:06.702Z,99139.09
2023-02-16T12:42:40.513Z,99143.06
2023-02-16T12:45:14.789Z,99143.88
2023-02-16T12:47:55.305Z,99124.78
2023-02-16T12:50:28.192Z,99140.22
2023-02-16T12:53:06.490Z,99154.00
2023-02-16T12:55:56.505Z,99137.59
2023-02-16T12:58:25.223Z,99147.34
2023-02-16T13:01:12.450Z,99153.34
2023-02-16T13:03:54.384Z,99150.19
2023-02-16T13:06:43.658Z,99135.41
2023-02-16T13:09:20.319Z,99148.22
2023-02-16T13:11:58.295Z,99160.88
2023-02-16T13:14:35.402Z,99123.66
2023-02-16T13:17:18.376Z,99154.16
2023-02-16T13:19:47.794Z,99154.19
2023-02-16T13:22:18.476Z,99162.31
2023-02-16T13:24:51.984Z,99155.09
2023-02-16T13:27:28.826Z,99149.75
2023-02-16T13:30:37.466Z,99153.84
2023-02-16T13:33:14.977Z,99156.94
2023-02-16T13:36:37.502Z,99156.84
2023-02-16T13:39:18.510Z,99154.66
2023-02-16T13:42:26.403Z,99147.22
2023-02-16T13:45:03.382Z,99158.00
2023-02-16T13:47:38.913Z,99146.00
2023-02-16T13:50:31.747Z,99153.69
2023-02-16T13:53:10.104Z,99152.16
2023-02-16T13:55:40.333Z,99149.38
2023-02-16T13:58:13.886Z,99129.50
2023-02-16T14:00:42.975Z,99150.66
2023-02-16T14:03:22.500Z,99151.06
2023-02-16T14:06:28.643Z,99157.31
2023-02-16T14:09:11.588Z,99169.53
2023-02-16T14:11:53.198Z,99158.03
2023-02-16T14:14:43.925Z,99172.66
2023-02-16T14:17:21.957Z,99173.84
2023-02-16T14:19:58.109Z,99140.91
2023-02-16T14:22:43.808Z,99168.63
2023-02-16T14:25:21.004Z,99168.91
2023-02-16T14:27:59.034Z,99169.47
2023-02-16T14:30:32.429Z,99168.97
2023-02-16T14:33:16.871Z,99174.66
2023-02-16T14:35:46.490Z,99177.84
2023-02-16T14:38:30.986Z,99171.75
2023-02-16T14:41:09.150Z,99179.44
2023-02-16T14:43:46.026Z,99184.38
2023-02-16T14:46:35.161Z,99179.09
2023-02-16T14:49:30.498Z,99153.56
2023-02-16T14:52:30.117Z,99176.69
2023-02-16T14:55:09.999Z,99188.97
2023-02-16T14:57:43.216Z,99177.53
2023-02-16T15:00:29.376Z,99172.69
2023-02-16T15:03:00.126Z,99176.13
2023-02-16T15:05:31.136Z,99167.31
2023-02-16T15:08:16.800Z,99178.16
2023-02-16T15:10:47.548Z,99169.34
2023-02-16T15:13:33.168Z,99173.38
2023-02-16T15:16:03.714Z,99185.66
2023-02-16T15:18:43.066Z,99176.19
2023-02-16T15:21:28.780Z,99184.63
2023-02-16T15:23:59.576Z,99186.47
2023-02-16T15:26:31.139Z,99186.47
2023-02-16T15:29:01.933Z,99166.97
2023-02-16T15:31:37.331Z,99184.66
2023-02-16T15:34:08.369Z,99178.22
2023-02-16T15:36:44.542Z,99173.19
2023-02-16T15:39:38.514Z,99173.59
2023-02-16T15:42:32.130Z,99173.00
2023-02-16T15:44:59.747Z,99166.16
2023-02-16T15:47:27.671Z,99179.41
2023-02-16T15:49:55.541Z,99188.66
2023-02-16T15:52:43.674Z,99178.75
2023-02-16T15:55:13.253Z,99179.97
2023-02-16T15:57:41.614Z,99183.16
2023-02-16T16:00:22.117Z,99202.47
2023-02-16T16:02:58.806Z,99177.06
2023-02-16T16:05:26.288Z,99185.00
2023-02-16T16:07:55.728Z,99182.03
2023-02-16T16:10:32.960Z,99177.09
2023-02-16T16:13:17.984Z,99182.94
2023-02-16T16:16:34.296Z,99150.75
2023-02-16T16:19:17.350Z,99180.09
2023-02-16T16:21:56.937Z,99188.19
2023-02-16T16:24:40.708Z,99194.94
2023-02-16T16:27:15.172Z,99188.19
2023-02-16T16:29:48.105Z,99193.63
2023-02-16T16:32:20.740Z,99194.22
2023-02-16T16:34:49.108Z,99196.00
2023-02-16T16:37:22.649Z,99185.66
2023-02-16T16:40:27.760Z,99190.88
2023-02-16T16:43:09.663Z,99201.97
2023-02-16T16:45:47.157Z,99195.56
2023-02-16T16:48:20.366Z,99189.47
2023-02-16T16:50:49.167Z,99194.06
2023-02-16T16:53:32.164Z,99192.97
2023-02-16T16:56:01.939Z,99160.28
2023-02-16T16:58:29.762Z,99194.97
2023-02-16T17:00:57.634Z,99204.78
2023-02-16T17:03:25.193Z,99194.75
2023-02-16T17:05:52.812Z,99197.19
2023-02-16T17:08:20.366Z,99193.22
2023-02-16T17:10:47.981Z,99204.09
2023-02-16T17:13:19.027Z,99193.00
2023-02-16T17:18:57.409Z,99194.84
2023-02-16T17:21:25.004Z,99191.59
2023-02-16T17:23:53.523Z,99212.13
2023-02-16T17:26:22.963Z,99207.31
2023-02-16T17:28:51.122Z,99210.13
2023-02-16T17:31:18.711Z,99202.03
2023-02-16T17:33:46.257Z,99206.06
2023-02-16T17:36:15.852Z,99203.25
2023-02-16T17:38:47.138Z,99187.97
2023-02-16T17:41:27.509Z,99201.81
2023-02-16T17:43:55.194Z,99201.16
2023-02-16T17:46:23.417Z,99191.78
2023-02-16T17:48:54.197Z,99189.16
2023-02-16T17:51:31.376Z,99179.38
2023-02-16T17:54:02.408Z,99191.88
2023-02-16T17:56:32.715Z,99197.28
2023-02-16T17:59:00.303Z,99198.28
2023-02-16T18:01:28.005Z,99197.88
2023-02-16T18:03:55.759Z,99195.25
2023-02-16T18:06:28.920Z,99196.84
2023-02-16T18:08:57.074Z,99190.50
2023-02-16T18:11:24.738Z,99189.50
2023-02-16T18:13:52.688Z,99187.81
2023-02-16T18:16:25.307Z,99191.69
2023-02-16T18:18:53.689Z,99200.25
2023-02-16T18:21:21.221Z,99182.41
2023-02-16T18:23:48.827Z,99191.53
2023-02-16T18:26:17.027Z,99183.34
2023-02-16T18:28:45.236Z,99170.94
2023-02-16T18:31:13.392Z,99172.97
2023-02-16T18:33:41.117Z,99180.31
2023-02-16T18:36:09.417Z,99179.09
2023-02-16T18:38:37.307Z,99173.53
2023-02-16T18:41:05.139Z,99186.75
2023-02-16T18:43:32.767Z,99180.63
2023-02-16T18:46:04.644Z,99187.66
2023-02-16T18:48:32.502Z,99190.13
2023-02-16T18:51:03.272Z,99180.44
2023-02-16T18:53:30.833Z,99186.34
2023-02-16T18:55:58.559Z,99185.47
2023-02-16T18:58:26.228Z,99176.00
2023-02-16T19:00:53.832Z,99170.22
2023-02-16T19:03:21.500Z,99172.88
2023-02-16T19:05:49.099Z,99169.22
2023-02-16T19:08:16.814Z,99166.53
2023-02-16T19:10:44.400Z,99173.44
2023-02-16T19:13:12.000Z,99171.97
2023-02-16T19:15:39.588Z,99171.88
2023-02-16T19:18:07.129Z,99167.19
2023-02-16T19:20:35.048Z,99169.22
2023-02-16T19:23:02.630Z,99173.94
2023-02-16T19:25:30.214Z,99171.28
2023-02-16T19:27:57.917Z,99180.72
2023-02-16T19:30:25.417Z,99168.72
2023-02-16T19:32:53.075Z,99171.63
2023-02-16T19:35:20.677Z,99177.00
2023-02-16T19:37:48.376Z,99171.25
2023-02-16T19:40:16.859Z,99158.41
2023-02-16T19:42:44.453Z,99170.94
2023-02-16T19:45:12.111Z,99174.38
2023-02-16T19:47:39.797Z,99168.59
2023-02-16T19:50:07.646Z,99169.22
2023-02-16T19:52:35.218Z,99164.59
2023-02-16T19:55:02.705Z,99161.09
2023-02-16T19:57:31.135Z,99165.53
2023-02-16T19:59:58.767Z,99147.50
2023-02-16T20:02:26.326Z,99148.94
2023-02-16T20:04:54.450Z,99153.56
2023-02-16T20:07:21.926Z,99148.34
2023-02-16T20:09:49.478Z,99149.34
2023-02-16T20:12:16.962Z,99150.16
2023-02-16T20:14:44.612Z,99141.91
2023-02-16T20:17:12.113Z,99162.03
2023-02-16T20:19:39.703Z,99145.69
2023-02-16T20:22:07.238Z,99152.34
2023-02-16T20:24:35.133Z,99143.56
2023-02-16T20:27:04.778Z,99151.09
2023-02-16T20:29:32.882Z,99150.28
2023-02-16T20:32:01.057Z,99153.16
2023-02-16T20:34:28.781Z,99149.81
2023-02-16T20:36:56.312Z,99144.34
2023-02-16T20:39:24.388Z,99150.78
2023-02-16T20:41:51.946Z,99136.75
2023-02-16T20:44:21.320Z,99154.66
2023-02-16T20:46:52.596Z,99149.38
2023-02-16T20:49:20.717Z,99149.34
2023-02-16T20:51:48.252Z,99156.66
2023-02-16T20:54:15.785Z,99151.41
2023-02-16T20:56:43.355Z,99149.19
2023-02-16T20:59:11.993Z,99146.34
2023-02-16T21:01:46.859Z,99139.59
2023-02-16T21:04:18.081Z,99141.03
2023-02-16T21:06:45.731Z,99135.63
2023-02-16T21:09:14.427Z,99139.44
2023-02-16T21:11:42.742Z,99133.41
2023-02-16T21:14:12.181Z,99136.25
2023-02-16T21:16:41.347Z,99124.34
2023-02-16T21:19:20.950Z,99119.75
2023-02-16T21:21:50.415Z,99123.81
2023-02-16T21:24:18.053Z,99114.75
2023-02-16T21:26:45.621Z,99127.25
2023-02-16T21:29:13.430Z,99118.84
2023-02-16T21:31:41.003Z,99116.69
2023-02-16T21:34:08.603Z,99114.72
2023-02-16T21:36:37.730Z,99107.09
2023-02-16T21:39:05.537Z,99109.97
2023-02-16T21:41:33.295Z,99113.16
2023-02-16T21:44:04.076Z,99111.84
2023-02-16T21:46:40.525Z,99106.78
2023-02-16T21:49:13.489Z,99114.22
2023-02-16T21:51:42.677Z,99130.16
2023-02-16T21:54:14.392Z,99125.91
2023-02-16T21:56:51.933Z,99126.50
2023-02-16T21:59:22.950Z,99124.44
2023-02-16T22:01:52.131Z,99126.66
2023-02-16T22:04:22.110Z,99128.28
2023-02-16T22:06:51.288Z,99124.66
2023-02-16T22:09:22.300Z,99126.03
2023-02-16T22:11:51.174Z,99091.81
2023-02-16T22:14:19.524Z,99129.25
2023-02-16T22:16:48.212Z,99114.66
2023-02-16T22:19:17.919Z,99097.44
2023-02-16T22:21:46.947Z,99107.47
2023-02-16T22:24:17.303Z,99117.91
2023-02-16T22:26:46.057Z,99101.06
2023-02-16T22:29:14.012Z,99111.16
2023-02-16T22:31:46.619Z,99114.94
2023-02-16T22:34:17.647Z,99119.19
2023-02-16T22:36:46.152Z,99120.22
2023-02-16T22:39:15.251Z,99112.66
2023-02-16T22:41:43.201Z,99111.56
2023-02-16T22:44:12.202Z,99106.34
2023-02-16T22:46:39.914Z,99114.97
2023-02-16T22:49:07.505Z,99094.75
2023-02-16T22:51:35.322Z,99103.53
2023-02-16T22:54:03.913Z,99118.81
2023-02-16T22:56:32.296Z,99111.19
2023-02-16T22:59:00.603Z,99104.91
2023-02-16T23:01:30.200Z,99103.56
2023-02-16T23:03:59.731Z,99092.47
2023-02-16T23:06:30.340Z,99107.91
2023-02-16T23:09:00.179Z,99086.75
2023-02-16T23:11:28.786Z,99089.41
2023-02-16T23:13:56.590Z,99092.50
2023-02-16T23:16:25.934Z,99081.06
2023-02-16T23:18:55.822Z,99078.13
2023-02-16T23:21:32.424Z,99080.78
2023-02-16T23:24:00.549Z,99081.97
2023-02-16T23:26:30.629Z,99076.81
2023-02-16T23:29:01.758Z,99071.00
2023-02-16T23:31:35.081Z,99075.25
2023-02-16T23:34:03.436Z,99046.44
2023-02-16T23:36:32.099Z,99068.00
2023-02-16T23:39:01.108Z,99071.25
2023-02-16T23:41:28.836Z,99063.38
2023-02-16T23:43:56.858Z,99060.19
2023-02-16T23:46:25.231Z,99055.31
2023-02-16T23:48:52.808Z,99058.56
2023-02-16T23:51:20.358Z,99050.31
2023-02-16T23:53:47.902Z,99051.13
2023-02-16T23:56:22.354Z,99050.84
2023-02-16T23:58:50.614Z,99052.22
